PWSweather.com
Personal Weather Stations
Station Observations
KFLPOINC2
Poinciana Kissimmee, Poinciana, FL 34758

Poinciana KissimmeePoinciana, FL 34758

Lat: 28.161417, Lon: -81.477557

Elevation: 88

Station Type: Ambient Weather WS 2080

Latest ConditionsUpdated 5:15:01 AM EDT Friday, Jul 31, 2015
Currently Today's Max Today's Min Today's Average
Temperature 75.9°F24.4°C 88.0°F31.1°C 75.6°F24.2°C 81.0°F27.2°C
Dew Point 73.8°F23.2°C 74.8°F23.8°C 73.1°F22.8°C 74.0°F23.3°C
Winds Calm Calm 6.0 mph SE9.7 kmh SE - 3.1 mph 5.0 kmh
Wind Gusts -- 11.4 mph18.3 kmh - -
Humidity 93% 93% 65% 81%
Pressure 29.92 in1013.2 mb 29.92 in1013.2 mb 29.92 in1013.2 mb -
Precipitation - 0.02 in0.5 mm - -
Hour Temp Dew Point Humidity Winds Wind Gusts Pressure Precip Precip Rate Daily Precip Total
05:15 AM 75.9°F24.4°C 73.8°F23.2°C 93% Calm Calm -- 29.92 in1013.2 mb 0.00 in0.0 mm 0.00 in0.0 mm 0.02 in0.5 mm
05:00 AM 75.6°F24.2°C 73.4°F23.0°C 93% Calm Calm -- 29.92 in1013.2 mb 0.00 in0.0 mm 0.00 in0.0 mm 0.02 in0.5 mm
04:45 AM 75.6°F24.2°C 73.4°F23.0°C 93% Calm Calm 1.6 mph2.6 kmh 29.92 in1013.2 mb 0.00 in0.0 mm 0.00 in0.0 mm 0.02 in0.5 mm
04:30 AM 75.6°F24.2°C 73.4°F23.0°C 93% Calm Calm -- 29.92 in1013.2 mb 0.00 in0.0 mm 0.00 in0.0 mm 0.02 in0.5 mm
04:15 AM 75.6°F24.2°C 73.4°F23.0°C 93% Calm Calm -- 29.92 in1013.2 mb 0.00 in0.0 mm 0.00 in0.0 mm 0.02 in0.5 mm
04:00 AM 75.6°F24.2°C 73.4°F23.0°C 93% 0.7 mph SE1.1 kmh SE 2.2 mph3.5 kmh 29.92 in1013.2 mb 0.00 in0.0 mm 0.00 in0.0 mm 0.02 in0.5 mm
03:45 AM 75.6°F24.2°C 73.4°F23.0°C 93% 2.2 mph SE3.5 kmh SE 3.8 mph6.1 kmh 29.92 in1013.2 mb 0.00 in0.0 mm 0.00 in0.0 mm 0.02 in0.5 mm
03:30 AM 75.7°F24.3°C 73.6°F23.1°C 93% Calm Calm 4.5 mph7.2 kmh 29.92 in1013.2 mb 0.00 in0.0 mm 0.00 in0.0 mm 0.02 in0.5 mm
03:15 AM 75.7°F24.3°C 73.6°F23.1°C 93% 2.2 mph SE3.5 kmh SE 4.5 mph7.2 kmh 29.92 in1013.2 mb 0.03 in0.8 mm 0.00 in0.0 mm 0.02 in0.5 mm
03:00 AM 75.7°F24.3°C 73.6°F23.1°C 93% 1.6 mph SE2.6 kmh SE 3.8 mph6.1 kmh 29.92 in1013.2 mb 0.03 in0.8 mm 0.00 in0.0 mm 0.02 in0.5 mm
02:45 AM 75.7°F24.3°C 73.3°F22.9°C 92% 1.6 mph SE2.6 kmh SE 4.5 mph7.2 kmh 29.92 in1013.2 mb 0.03 in0.8 mm 0.00 in0.0 mm 0.02 in0.5 mm
02:30 AM 75.6°F24.2°C 73.1°F22.8°C 92% 1.6 mph SE2.6 kmh SE 9.2 mph14.8 kmh 29.92 in1013.2 mb 0.03 in0.8 mm 0.00 in0.0 mm 0.02 in0.5 mm
02:21 AM 75.6°F24.2°C 73.1°F22.8°C 92% 0.7 mph SE1.1 kmh SE 9.2 mph14.8 kmh 29.92 in1013.2 mb 0.03 in0.8 mm 0.30 in7.6 mm 0.02 in0.5 mm
02:15 AM 88.0°F31.1°C 74.8°F23.8°C 65% 6.0 mph SE9.7 kmh SE 11.4 mph18.3 kmh 29.92 in1013.2 mb 0.00 in0.0 mm 0.00 in0.0 mm 0.00 in0.0 mm
02:00 AM 88.0°F31.1°C 74.8°F23.8°C 65% 6.0 mph SE9.7 kmh SE 11.4 mph18.3 kmh 29.92 in1013.2 mb 0.00 in0.0 mm 0.00 in0.0 mm 0.00 in0.0 mm
01:45 AM 88.0°F31.1°C 74.8°F23.8°C 65% 6.0 mph SE9.7 kmh SE 11.4 mph18.3 kmh 29.92 in1013.2 mb 0.00 in0.0 mm 0.00 in0.0 mm 0.00 in0.0 mm
01:30 AM 88.0°F31.1°C 74.8°F23.8°C 65% 6.0 mph SE9.7 kmh SE 11.4 mph18.3 kmh 29.92 in1013.2 mb 0.00 in0.0 mm 0.00 in0.0 mm 0.00 in0.0 mm
01:15 AM 88.0°F31.1°C 74.8°F23.8°C 65% 6.0 mph SE9.7 kmh SE 11.4 mph18.3 kmh 29.92 in1013.2 mb 0.00 in0.0 mm 0.00 in0.0 mm 0.00 in0.0 mm
01:00 AM 88.0°F31.1°C 74.8°F23.8°C 65% 6.0 mph SE9.7 kmh SE 11.4 mph18.3 kmh 29.92 in1013.2 mb 0.00 in0.0 mm 0.00 in0.0 mm 0.00 in0.0 mm
12:45 AM 88.0°F31.1°C 74.8°F23.8°C 65% 6.0 mph SE9.7 kmh SE 11.4 mph18.3 kmh 29.92 in1013.2 mb 0.00 in0.0 mm 0.00 in0.0 mm 0.00 in0.0 mm
12:30 AM 88.0°F31.1°C 74.8°F23.8°C 65% 6.0 mph SE9.7 kmh SE 11.4 mph18.3 kmh 29.92 in1013.2 mb 0.00 in0.0 mm 0.00 in0.0 mm 0.00 in0.0 mm
12:15 AM 88.0°F31.1°C 74.8°F23.8°C 65% 6.0 mph SE9.7 kmh SE 11.4 mph18.3 kmh 29.92 in1013.2 mb 0.00 in0.0 mm 0.00 in0.0 mm 0.00 in0.0 mm
12:00 AM 88.0°F31.1°C 74.8°F23.8°C 65% 6.0 mph SE9.7 kmh SE 11.4 mph18.3 kmh 29.92 in1013.2 mb 0.00 in0.0 mm 0.00 in0.0 mm 0.00 in0.0 mm